sensor_id;sensor_type;location;lat;lon;timestamp;pressure;altitude;pressure_sealevel;temperature
20289;BMP180;10303;51.960;8.372;2023-03-29T00:01:29;100757.00;;;9.60
20289;BMP180;10303;51.960;8.372;2023-03-29T00:03:57;100744.00;;;9.60
20289;BMP180;10303;51.960;8.372;2023-03-29T00:06:22;100747.00;;;9.60
20289;BMP180;10303;51.960;8.372;2023-03-29T00:08:49;100738.00;;;9.60
20289;BMP180;10303;51.960;8.372;2023-03-29T00:11:19;100732.00;;;9.50
20289;BMP180;10303;51.960;8.372;2023-03-29T00:13:48;100732.00;;;9.50
20289;BMP180;10303;51.960;8.372;2023-03-29T00:16:14;100730.00;;;9.50
20289;BMP180;10303;51.960;8.372;2023-03-29T00:18:40;100730.00;;;9.50
20289;BMP180;10303;51.960;8.372;2023-03-29T00:21:07;100724.00;;;9.50
20289;BMP180;10303;51.960;8.372;2023-03-29T00:23:32;100729.00;;;9.40
20289;BMP180;10303;51.960;8.372;2023-03-29T00:25:58;100719.00;;;9.40
20289;BMP180;10303;51.960;8.372;2023-03-29T00:28:24;100717.00;;;9.40
20289;BMP180;10303;51.960;8.372;2023-03-29T00:30:51;100709.00;;;9.30
20289;BMP180;10303;51.960;8.372;2023-03-29T00:33:18;100716.00;;;9.30
20289;BMP180;10303;51.960;8.372;2023-03-29T00:35:46;100710.00;;;9.30
20289;BMP180;10303;51.960;8.372;2023-03-29T00:38:15;100708.00;;;9.30
20289;BMP180;10303;51.960;8.372;2023-03-29T00:40:44;100702.00;;;9.30
20289;BMP180;10303;51.960;8.372;2023-03-29T00:43:13;100704.00;;;9.20
20289;BMP180;10303;51.960;8.372;2023-03-29T00:45:40;100687.00;;;9.20
20289;BMP180;10303;51.960;8.372;2023-03-29T00:48:17;100691.00;;;9.20
20289;BMP180;10303;51.960;8.372;2023-03-29T00:50:54;100689.00;;;9.20
20289;BMP180;10303;51.960;8.372;2023-03-29T00:53:35;100672.00;;;9.10
20289;BMP180;10303;51.960;8.372;2023-03-29T00:56:08;100662.00;;;9.10
20289;BMP180;10303;51.960;8.372;2023-03-29T01:07:24;100653.00;;;9.00
20289;BMP180;10303;51.960;8.372;2023-03-29T01:10:04;100647.00;;;9.00
20289;BMP180;10303;51.960;8.372;2023-03-29T01:12:42;100638.00;;;9.00
20289;BMP180;10303;51.960;8.372;2023-03-29T01:15:17;100636.00;;;9.10
20289;BMP180;10303;51.960;8.372;2023-03-29T01:17:45;100639.00;;;9.10
20289;BMP180;10303;51.960;8.372;2023-03-29T01:29:06;100635.00;;;9.00
20289;BMP180;10303;51.960;8.372;2023-03-29T01:31:50;100632.00;;;9.00
20289;BMP180;10303;51.960;8.372;2023-03-29T01:37:28;100626.00;;;9.00
20289;BMP180;10303;51.960;8.372;2023-03-29T01:39:57;100620.00;;;9.00
20289;BMP180;10303;51.960;8.372;2023-03-29T01:48:15;100599.00;;;8.90
20289;BMP180;10303;51.960;8.372;2023-03-29T01:50:54;100598.00;;;9.00
20289;BMP180;10303;51.960;8.372;2023-03-29T01:53:35;100593.00;;;9.00
20289;BMP180;10303;51.960;8.372;2023-03-29T01:56:10;100589.00;;;9.00
20289;BMP180;10303;51.960;8.372;2023-03-29T01:58:48;100579.00;;;9.00
20289;BMP180;10303;51.960;8.372;2023-03-29T02:01:21;100575.00;;;9.00
20289;BMP180;10303;51.960;8.372;2023-03-29T02:03:58;100583.00;;;8.90
20289;BMP180;10303;51.960;8.372;2023-03-29T02:06:26;100568.00;;;9.00
20289;BMP180;10303;51.960;8.372;2023-03-29T02:08:54;100564.00;;;9.00
20289;BMP180;10303;51.960;8.372;2023-03-29T02:11:23;100563.00;;;9.00
20289;BMP180;10303;51.960;8.372;2023-03-29T02:13:50;100556.00;;;9.00
20289;BMP180;10303;51.960;8.372;2023-03-29T02:16:16;100548.00;;;8.90
20289;BMP180;10303;51.960;8.372;2023-03-29T02:18:45;100545.00;;;8.90
20289;BMP180;10303;51.960;8.372;2023-03-29T02:21:45;100539.00;;;8.90
20289;BMP180;10303;51.960;8.372;2023-03-29T02:24:20;100537.00;;;8.80
20289;BMP180;10303;51.960;8.372;2023-03-29T02:26:48;100527.00;;;8.80
20289;BMP180;10303;51.960;8.372;2023-03-29T02:29:14;100534.00;;;8.80
20289;BMP180;10303;51.960;8.372;2023-03-29T02:31:56;100532.00;;;8.80
20289;BMP180;10303;51.960;8.372;2023-03-29T02:34:39;100529.00;;;8.70
20289;BMP180;10303;51.960;8.372;2023-03-29T02:37:14;100534.00;;;8.70
20289;BMP180;10303;51.960;8.372;2023-03-29T02:39:47;100536.00;;;8.80
20289;BMP180;10303;51.960;8.372;2023-03-29T02:42:17;100540.00;;;8.80
20289;BMP180;10303;51.960;8.372;2023-03-29T02:44:48;100546.00;;;8.80
20289;BMP180;10303;51.960;8.372;2023-03-29T02:47:37;100545.00;;;8.70
20289;BMP180;10303;51.960;8.372;2023-03-29T02:50:07;100534.00;;;8.80
20289;BMP180;10303;51.960;8.372;2023-03-29T02:52:38;100529.00;;;8.80
20289;BMP180;10303;51.960;8.372;2023-03-29T02:55:11;100524.00;;;8.80
20289;BMP180;10303;51.960;8.372;2023-03-29T02:57:40;100518.00;;;8.80
20289;BMP180;10303;51.960;8.372;2023-03-29T03:00:10;100524.00;;;8.80
20289;BMP180;10303;51.960;8.372;2023-03-29T03:02:37;100515.00;;;8.80
20289;BMP180;10303;51.960;8.372;2023-03-29T03:05:04;100502.00;;;8.80
20289;BMP180;10303;51.960;8.372;2023-03-29T03:07:31;100491.00;;;8.80
20289;BMP180;10303;51.960;8.372;2023-03-29T03:09:58;100491.00;;;8.80
20289;BMP180;10303;51.960;8.372;2023-03-29T03:12:24;100482.00;;;8.80
20289;BMP180;10303;51.960;8.372;2023-03-29T03:14:50;100479.00;;;8.80
20289;BMP180;10303;51.960;8.372;2023-03-29T03:17:16;100479.00;;;8.80
20289;BMP180;10303;51.960;8.372;2023-03-29T03:19:45;100476.00;;;8.80
20289;BMP180;10303;51.960;8.372;2023-03-29T03:22:11;100476.00;;;8.80
20289;BMP180;10303;51.960;8.372;2023-03-29T03:24:37;100472.00;;;8.80
20289;BMP180;10303;51.960;8.372;2023-03-29T03:27:04;100468.00;;;8.80
20289;BMP180;10303;51.960;8.372;2023-03-29T03:29:30;100460.00;;;8.80
20289;BMP180;10303;51.960;8.372;2023-03-29T03:32:28;100464.00;;;8.70
20289;BMP180;10303;51.960;8.372;2023-03-29T03:35:23;100466.00;;;8.70
20289;BMP180;10303;51.960;8.372;2023-03-29T03:37:49;100458.00;;;8.70
20289;BMP180;10303;51.960;8.372;2023-03-29T03:40:17;100463.00;;;8.70
20289;BMP180;10303;51.960;8.372;2023-03-29T03:42:43;100455.00;;;8.70
20289;BMP180;10303;51.960;8.372;2023-03-29T03:45:10;100452.00;;;8.70
20289;BMP180;10303;51.960;8.372;2023-03-29T03:47:50;100449.00;;;8.70
20289;BMP180;10303;51.960;8.372;2023-03-29T03:50:22;100456.00;;;8.70
20289;BMP180;10303;51.960;8.372;2023-03-29T03:52:49;100453.00;;;8.70
20289;BMP180;10303;51.960;8.372;2023-03-29T03:55:15;100448.00;;;8.70
20289;BMP180;10303;51.960;8.372;2023-03-29T03:57:50;100449.00;;;8.70
20289;BMP180;10303;51.960;8.372;2023-03-29T04:00:18;100446.00;;;8.70
20289;BMP180;10303;51.960;8.372;2023-03-29T04:02:52;100456.00;;;8.70
20289;BMP180;10303;51.960;8.372;2023-03-29T04:05:21;100457.00;;;8.70
20289;BMP180;10303;51.960;8.372;2023-03-29T04:07:48;100452.00;;;8.70
20289;BMP180;10303;51.960;8.372;2023-03-29T04:10:52;100465.00;;;8.70
20289;BMP180;10303;51.960;8.372;2023-03-29T04:13:24;100451.00;;;8.70
20289;BMP180;10303;51.960;8.372;2023-03-29T04:16:10;100452.00;;;8.70
20289;BMP180;10303;51.960;8.372;2023-03-29T04:18:36;100451.00;;;8.80
20289;BMP180;10303;51.960;8.372;2023-03-29T04:21:02;100453.00;;;8.80
20289;BMP180;10303;51.960;8.372;2023-03-29T04:23:30;100449.00;;;8.80
20289;BMP180;10303;51.960;8.372;2023-03-29T04:25:56;100449.00;;;8.80
20289;BMP180;10303;51.960;8.372;2023-03-29T04:28:45;100446.00;;;8.80
20289;BMP180;10303;51.960;8.372;2023-03-29T04:31:33;100440.00;;;8.90
20289;BMP180;10303;51.960;8.372;2023-03-29T04:34:18;100445.00;;;8.90
20289;BMP180;10303;51.960;8.372;2023-03-29T04:36:45;100442.00;;;8.90
20289;BMP180;10303;51.960;8.372;2023-03-29T04:39:18;100438.00;;;8.90
20289;BMP180;10303;51.960;8.372;2023-03-29T04:41:48;100439.00;;;8.90
20289;BMP180;10303;51.960;8.372;2023-03-29T04:44:19;100442.00;;;8.90
20289;BMP180;10303;51.960;8.372;2023-03-29T04:46:46;100430.00;;;8.90
20289;BMP180;10303;51.960;8.372;2023-03-29T04:49:12;100432.00;;;9.00
20289;BMP180;10303;51.960;8.372;2023-03-29T04:51:40;100430.00;;;9.00
20289;BMP180;10303;51.960;8.372;2023-03-29T04:54:08;100426.00;;;9.00
20289;BMP180;10303;51.960;8.372;2023-03-29T04:56:54;100429.00;;;9.00
20289;BMP180;10303;51.960;8.372;2023-03-29T04:59:43;100428.00;;;9.00
20289;BMP180;10303;51.960;8.372;2023-03-29T05:02:29;100425.00;;;9.00
20289;BMP180;10303;51.960;8.372;2023-03-29T05:04:57;100426.00;;;9.00
20289;BMP180;10303;51.960;8.372;2023-03-29T05:07:23;100427.00;;;9.10
20289;BMP180;10303;51.960;8.372;2023-03-29T05:09:49;100415.00;;;9.10
20289;BMP180;10303;51.960;8.372;2023-03-29T05:12:15;100426.00;;;9.10
20289;BMP180;10303;51.960;8.372;2023-03-29T05:14:50;100427.00;;;9.10
20289;BMP180;10303;51.960;8.372;2023-03-29T05:17:16;100423.00;;;9.10
20289;BMP180;10303;51.960;8.372;2023-03-29T05:19:43;100422.00;;;9.10
20289;BMP180;10303;51.960;8.372;2023-03-29T05:22:09;100419.00;;;9.10
20289;BMP180;10303;51.960;8.372;2023-03-29T05:24:36;100424.00;;;9.20
20289;BMP180;10303;51.960;8.372;2023-03-29T05:27:15;100421.00;;;9.20
20289;BMP180;10303;51.960;8.372;2023-03-29T05:29:44;100416.00;;;9.20
20289;BMP180;10303;51.960;8.372;2023-03-29T05:32:28;100403.00;;;9.30
20289;BMP180;10303;51.960;8.372;2023-03-29T05:34:54;100400.00;;;9.30
20289;BMP180;10303;51.960;8.372;2023-03-29T05:37:20;100402.00;;;9.30
20289;BMP180;10303;51.960;8.372;2023-03-29T05:39:52;100408.00;;;9.30
20289;BMP180;10303;51.960;8.372;2023-03-29T05:42:21;100400.00;;;9.30
20289;BMP180;10303;51.960;8.372;2023-03-29T05:44:53;100401.00;;;9.40
20289;BMP180;10303;51.960;8.372;2023-03-29T05:47:19;100408.00;;;9.40
20289;BMP180;10303;51.960;8.372;2023-03-29T05:49:45;100394.00;;;9.40
20289;BMP180;10303;51.960;8.372;2023-03-29T05:52:14;100405.00;;;9.40
20289;BMP180;10303;51.960;8.372;2023-03-29T05:54:40;100407.00;;;9.50
20289;BMP180;10303;51.960;8.372;2023-03-29T05:57:07;100401.00;;;9.50
20289;BMP180;10303;51.960;8.372;2023-03-29T05:59:33;100398.00;;;9.50
20289;BMP180;10303;51.960;8.372;2023-03-29T06:01:59;100395.00;;;9.50
20289;BMP180;10303;51.960;8.372;2023-03-29T06:04:28;100404.00;;;9.50
20289;BMP180;10303;51.960;8.372;2023-03-29T06:07:10;100400.00;;;9.60
20289;BMP180;10303;51.960;8.372;2023-03-29T06:09:39;100398.00;;;9.60
20289;BMP180;10303;51.960;8.372;2023-03-29T06:12:07;100404.00;;;9.60
20289;BMP180;10303;51.960;8.372;2023-03-29T06:14:37;100401.00;;;9.60
20289;BMP180;10303;51.960;8.372;2023-03-29T06:17:18;100402.00;;;9.60
20289;BMP180;10303;51.960;8.372;2023-03-29T06:19:45;100402.00;;;9.70
20289;BMP180;10303;51.960;8.372;2023-03-29T06:22:11;100404.00;;;9.70
20289;BMP180;10303;51.960;8.372;2023-03-29T06:24:37;100407.00;;;9.70
20289;BMP180;10303;51.960;8.372;2023-03-29T06:27:09;100403.00;;;9.80
20289;BMP180;10303;51.960;8.372;2023-03-29T06:29:36;100416.00;;;9.80
20289;BMP180;10303;51.960;8.372;2023-03-29T06:32:02;100410.00;;;9.80
20289;BMP180;10303;51.960;8.372;2023-03-29T06:34:46;100409.00;;;9.90
20289;BMP180;10303;51.960;8.372;2023-03-29T06:37:38;100413.00;;;9.90
20289;BMP180;10303;51.960;8.372;2023-03-29T06:40:25;100415.00;;;9.90
20289;BMP180;10303;51.960;8.372;2023-03-29T06:42:56;100420.00;;;10.00
20289;BMP180;10303;51.960;8.372;2023-03-29T06:45:41;100426.00;;;10.00
20289;BMP180;10303;51.960;8.372;2023-03-29T06:48:16;100412.00;;;10.10
20289;BMP180;10303;51.960;8.372;2023-03-29T06:50:42;100410.00;;;10.10
20289;BMP180;10303;51.960;8.372;2023-03-29T06:53:10;100417.00;;;10.10
20289;BMP180;10303;51.960;8.372;2023-03-29T06:55:38;100405.00;;;10.20
20289;BMP180;10303;51.960;8.372;2023-03-29T06:58:30;100408.00;;;10.20
20289;BMP180;10303;51.960;8.372;2023-03-29T07:01:01;100422.00;;;10.30
20289;BMP180;10303;51.960;8.372;2023-03-29T07:03:41;100420.00;;;10.30
20289;BMP180;10303;51.960;8.372;2023-03-29T07:06:10;100407.00;;;10.40
20289;BMP180;10303;51.960;8.372;2023-03-29T07:08:39;100425.00;;;10.40
20289;BMP180;10303;51.960;8.372;2023-03-29T07:11:16;100412.00;;;10.50
20289;BMP180;10303;51.960;8.372;2023-03-29T07:14:06;100414.00;;;10.50
20289;BMP180;10303;51.960;8.372;2023-03-29T07:16:33;100414.00;;;10.50
20289;BMP180;10303;51.960;8.372;2023-03-29T07:19:13;100417.00;;;10.60
20289;BMP180;10303;51.960;8.372;2023-03-29T07:21:55;100432.00;;;10.60
20289;BMP180;10303;51.960;8.372;2023-03-29T07:24:31;100418.00;;;10.60
20289;BMP180;10303;51.960;8.372;2023-03-29T07:26:57;100429.00;;;10.70
20289;BMP180;10303;51.960;8.372;2023-03-29T07:29:24;100424.00;;;10.70
20289;BMP180;10303;51.960;8.372;2023-03-29T07:31:51;100420.00;;;10.80
20289;BMP180;10303;51.960;8.372;2023-03-29T07:34:36;100419.00;;;10.80
20289;BMP180;10303;51.960;8.372;2023-03-29T07:37:04;100431.00;;;10.90
20289;BMP180;10303;51.960;8.372;2023-03-29T07:39:32;100429.00;;;10.90
20289;BMP180;10303;51.960;8.372;2023-03-29T07:42:18;100420.00;;;10.90
20289;BMP180;10303;51.960;8.372;2023-03-29T07:44:44;100430.00;;;11.00
20289;BMP180;10303;51.960;8.372;2023-03-29T07:47:11;100428.00;;;11.00
20289;BMP180;10303;51.960;8.372;2023-03-29T07:49:37;100429.00;;;11.00
20289;BMP180;10303;51.960;8.372;2023-03-29T07:52:04;100426.00;;;11.00
20289;BMP180;10303;51.960;8.372;2023-03-29T07:54:31;100430.00;;;11.00
20289;BMP180;10303;51.960;8.372;2023-03-29T07:57:16;100444.00;;;11.00
20289;BMP180;10303;51.960;8.372;2023-03-29T07:59:49;100440.00;;;11.10
20289;BMP180;10303;51.960;8.372;2023-03-29T08:02:21;100439.00;;;11.10
20289;BMP180;10303;51.960;8.372;2023-03-29T08:04:52;100445.00;;;11.10
20289;BMP180;10303;51.960;8.372;2023-03-29T08:07:47;100439.00;;;11.20
20289;BMP180;10303;51.960;8.372;2023-03-29T08:10:19;100451.00;;;11.20
20289;BMP180;10303;51.960;8.372;2023-03-29T08:12:57;100445.00;;;11.20
20289;BMP180;10303;51.960;8.372;2023-03-29T08:15:30;100437.00;;;11.30
20289;BMP180;10303;51.960;8.372;2023-03-29T08:17:56;100433.00;;;11.30
20289;BMP180;10303;51.960;8.372;2023-03-29T08:20:24;100444.00;;;11.40
20289;BMP180;10303;51.960;8.372;2023-03-29T08:22:54;100431.00;;;11.40
20289;BMP180;10303;51.960;8.372;2023-03-29T08:25:46;100435.00;;;11.50
20289;BMP180;10303;51.960;8.372;2023-03-29T08:28:12;100432.00;;;11.50
20289;BMP180;10303;51.960;8.372;2023-03-29T08:30:44;100427.00;;;11.50
20289;BMP180;10303;51.960;8.372;2023-03-29T08:33:10;100428.00;;;11.60
20289;BMP180;10303;51.960;8.372;2023-03-29T08:35:36;100421.00;;;11.60
20289;BMP180;10303;51.960;8.372;2023-03-29T08:38:13;100434.00;;;11.70
20289;BMP180;10303;51.960;8.372;2023-03-29T08:40:39;100429.00;;;11.70
20289;BMP180;10303;51.960;8.372;2023-03-29T08:46:54;100438.00;;;11.80
20289;BMP180;10303;51.960;8.372;2023-03-29T08:49:36;100431.00;;;11.90
20289;BMP180;10303;51.960;8.372;2023-03-29T08:52:14;100428.00;;;11.90
20289;BMP180;10303;51.960;8.372;2023-03-29T08:54:46;100430.00;;;12.00
20289;BMP180;10303;51.960;8.372;2023-03-29T08:57:26;100419.00;;;12.00
20289;BMP180;10303;51.960;8.372;2023-03-29T09:00:01;100422.00;;;12.10
20289;BMP180;10303;51.960;8.372;2023-03-29T09:02:33;100420.00;;;12.20
20289;BMP180;10303;51.960;8.372;2023-03-29T09:05:26;100429.00;;;12.20
20289;BMP180;10303;51.960;8.372;2023-03-29T09:08:13;100426.00;;;12.30
20289;BMP180;10303;51.960;8.372;2023-03-29T09:15:08;100428.00;;;12.40
20289;BMP180;10303;51.960;8.372;2023-03-29T09:23:16;100422.00;;;12.70
20289;BMP180;10303;51.960;8.372;2023-03-29T09:29:45;100422.00;;;12.80
20289;BMP180;10303;51.960;8.372;2023-03-29T09:32:21;100431.00;;;12.80
20289;BMP180;10303;51.960;8.372;2023-03-29T09:35:17;100424.00;;;12.90
20289;BMP180;10303;51.960;8.372;2023-03-29T09:37:49;100431.00;;;13.00
20289;BMP180;10303;51.960;8.372;2023-03-29T09:40:30;100430.00;;;13.00
20289;BMP180;10303;51.960;8.372;2023-03-29T09:43:14;100427.00;;;13.10
20289;BMP180;10303;51.960;8.372;2023-03-29T09:45:42;100422.00;;;13.20
20289;BMP180;10303;51.960;8.372;2023-03-29T09:48:14;100422.00;;;13.20
20289;BMP180;10303;51.960;8.372;2023-03-29T09:50:49;100423.00;;;13.30
20289;BMP180;10303;51.960;8.372;2023-03-29T09:53:18;100423.00;;;13.30
20289;BMP180;10303;51.960;8.372;2023-03-29T09:55:54;100425.00;;;13.30
20289;BMP180;10303;51.960;8.372;2023-03-29T09:58:29;100420.00;;;13.30
20289;BMP180;10303;51.960;8.372;2023-03-29T10:00:59;100412.00;;;13.30
20289;BMP180;10303;51.960;8.372;2023-03-29T10:03:31;100414.00;;;13.40
20289;BMP180;10303;51.960;8.372;2023-03-29T10:06:11;100411.00;;;13.50
20289;BMP180;10303;51.960;8.372;2023-03-29T10:08:45;100416.00;;;13.50
20289;BMP180;10303;51.960;8.372;2023-03-29T10:11:22;100401.00;;;13.60
20289;BMP180;10303;51.960;8.372;2023-03-29T10:13:54;100402.00;;;13.70
20289;BMP180;10303;51.960;8.372;2023-03-29T10:16:33;100400.00;;;13.80
20289;BMP180;10303;51.960;8.372;2023-03-29T10:19:21;100401.00;;;13.80
20289;BMP180;10303;51.960;8.372;2023-03-29T10:21:52;100394.00;;;13.90
20289;BMP180;10303;51.960;8.372;2023-03-29T10:24:23;100378.00;;;14.00
20289;BMP180;10303;51.960;8.372;2023-03-29T10:27:02;100390.00;;;14.10
20289;BMP180;10303;51.960;8.372;2023-03-29T10:29:37;100393.00;;;14.20
20289;BMP180;10303;51.960;8.372;2023-03-29T10:32:35;100392.00;;;14.20
20289;BMP180;10303;51.960;8.372;2023-03-29T10:35:18;100393.00;;;14.30
20289;BMP180;10303;51.960;8.372;2023-03-29T10:37:51;100394.00;;;14.30
20289;BMP180;10303;51.960;8.372;2023-03-29T10:40:30;100402.00;;;14.30
20289;BMP180;10303;51.960;8.372;2023-03-29T10:43:12;100393.00;;;14.30
20289;BMP180;10303;51.960;8.372;2023-03-29T10:45:40;100389.00;;;14.30
20289;BMP180;10303;51.960;8.372;2023-03-29T10:48:13;100384.00;;;14.40
20289;BMP180;10303;51.960;8.372;2023-03-29T10:50:40;100392.00;;;14.40
20289;BMP180;10303;51.960;8.372;2023-03-29T10:53:19;100391.00;;;14.40
20289;BMP180;10303;51.960;8.372;2023-03-29T11:07:59;100398.00;;;14.20
20289;BMP180;10303;51.960;8.372;2023-03-29T11:13:53;100380.00;;;14.10
20289;BMP180;10303;51.960;8.372;2023-03-29T11:17:04;100380.00;;;14.10
20289;BMP180;10303;51.960;8.372;2023-03-29T11:26:18;100398.00;;;14.20
20289;BMP180;10303;51.960;8.372;2023-03-29T11:29:38;100395.00;;;14.10
20289;BMP180;10303;51.960;8.372;2023-03-29T11:32:35;100403.00;;;14.10
20289;BMP180;10303;51.960;8.372;2023-03-29T11:41:44;100396.00;;;13.90
20289;BMP180;10303;51.960;8.372;2023-03-29T11:44:25;100381.00;;;14.00
20289;BMP180;10303;51.960;8.372;2023-03-29T11:47:00;100386.00;;;14.00
20289;BMP180;10303;51.960;8.372;2023-03-29T11:49:37;100389.00;;;14.00
20289;BMP180;10303;51.960;8.372;2023-03-29T11:52:17;100392.00;;;14.00
20289;BMP180;10303;51.960;8.372;2023-03-29T11:55:11;100389.00;;;14.00
20289;BMP180;10303;51.960;8.372;2023-03-29T12:00:33;100392.00;;;14.00
20289;BMP180;10303;51.960;8.372;2023-03-29T12:03:30;100393.00;;;13.90
20289;BMP180;10303;51.960;8.372;2023-03-29T12:09:08;100392.00;;;13.90
20289;BMP180;10303;51.960;8.372;2023-03-29T12:11:43;100386.00;;;13.90
20289;BMP180;10303;51.960;8.372;2023-03-29T12:14:27;100384.00;;;13.90
20289;BMP180;10303;51.960;8.372;2023-03-29T12:17:12;100379.00;;;13.90
20289;BMP180;10303;51.960;8.372;2023-03-29T12:20:12;100379.00;;;13.90
20289;BMP180;10303;51.960;8.372;2023-03-29T12:22:45;100374.00;;;14.00
20289;BMP180;10303;51.960;8.372;2023-03-29T12:25:19;100375.00;;;14.00
20289;BMP180;10303;51.960;8.372;2023-03-29T12:28:18;100374.00;;;14.10
20289;BMP180;10303;51.960;8.372;2023-03-29T12:40:53;100353.00;;;14.40
20289;BMP180;10303;51.960;8.372;2023-03-29T12:43:39;100335.00;;;14.50
20289;BMP180;10303;51.960;8.372;2023-03-29T12:46:22;100330.00;;;14.50
20289;BMP180;10303;51.960;8.372;2023-03-29T12:49:02;100336.00;;;14.60
20289;BMP180;10303;51.960;8.372;2023-03-29T12:51:35;100322.00;;;14.80
20289;BMP180;10303;51.960;8.372;2023-03-29T12:54:19;100330.00;;;14.90
20289;BMP180;10303;51.960;8.372;2023-03-29T12:56:55;100314.00;;;14.90
20289;BMP180;10303;51.960;8.372;2023-03-29T12:59:37;100322.00;;;15.00
20289;BMP180;10303;51.960;8.372;2023-03-29T13:04:53;100315.00;;;15.20
20289;BMP180;10303;51.960;8.372;2023-03-29T13:10:02;100313.00;;;15.30
20289;BMP180;10303;51.960;8.372;2023-03-29T13:12:43;100316.00;;;15.40
20289;BMP180;10303;51.960;8.372;2023-03-29T13:18:13;100308.00;;;15.50
20289;BMP180;10303;51.960;8.372;2023-03-29T13:26:42;100305.00;;;15.80
20289;BMP180;10303;51.960;8.372;2023-03-29T13:29:56;100303.00;;;15.90
20289;BMP180;10303;51.960;8.372;2023-03-29T13:32:29;100302.00;;;16.00
20289;BMP180;10303;51.960;8.372;2023-03-29T13:38:12;100298.00;;;16.10
20289;BMP180;10303;51.960;8.372;2023-03-29T13:50:55;100282.00;;;16.30
20289;BMP180;10303;51.960;8.372;2023-03-29T13:53:35;100288.00;;;16.30
20289;BMP180;10303;51.960;8.372;2023-03-29T13:56:02;100283.00;;;16.30
20289;BMP180;10303;51.960;8.372;2023-03-29T13:58:48;100283.00;;;16.30
20289;BMP180;10303;51.960;8.372;2023-03-29T14:01:27;100280.00;;;16.30
20289;BMP180;10303;51.960;8.372;2023-03-29T14:03:55;100282.00;;;16.30
20289;BMP180;10303;51.960;8.372;2023-03-29T14:06:31;100282.00;;;16.30
20289;BMP180;10303;51.960;8.372;2023-03-29T14:09:04;100272.00;;;16.20
20289;BMP180;10303;51.960;8.372;2023-03-29T14:11:32;100280.00;;;16.20
20289;BMP180;10303;51.960;8.372;2023-03-29T14:14:01;100271.00;;;16.20
20289;BMP180;10303;51.960;8.372;2023-03-29T14:16:36;100268.00;;;16.10
20289;BMP180;10303;51.960;8.372;2023-03-29T14:19:17;100261.00;;;16.10
20289;BMP180;10303;51.960;8.372;2023-03-29T14:21:44;100262.00;;;16.10
20289;BMP180;10303;51.960;8.372;2023-03-29T14:24:18;100269.00;;;16.10
20289;BMP180;10303;51.960;8.372;2023-03-29T14:26:46;100248.00;;;16.10
20289;BMP180;10303;51.960;8.372;2023-03-29T14:29:12;100252.00;;;16.10
20289;BMP180;10303;51.960;8.372;2023-03-29T14:31:40;100253.00;;;16.10
20289;BMP180;10303;51.960;8.372;2023-03-29T14:34:14;100252.00;;;16.10
20289;BMP180;10303;51.960;8.372;2023-03-29T14:36:43;100252.00;;;16.00
20289;BMP180;10303;51.960;8.372;2023-03-29T14:39:17;100245.00;;;16.00
20289;BMP180;10303;51.960;8.372;2023-03-29T14:41:55;100237.00;;;16.00
20289;BMP180;10303;51.960;8.372;2023-03-29T14:44:29;100246.00;;;16.00
20289;BMP180;10303;51.960;8.372;2023-03-29T14:46:57;100235.00;;;16.10
20289;BMP180;10303;51.960;8.372;2023-03-29T14:49:23;100230.00;;;16.10
20289;BMP180;10303;51.960;8.372;2023-03-29T14:51:51;100221.00;;;16.20
20289;BMP180;10303;51.960;8.372;2023-03-29T14:54:29;100230.00;;;16.20
20289;BMP180;10303;51.960;8.372;2023-03-29T14:56:58;100222.00;;;16.30
20289;BMP180;10303;51.960;8.372;2023-03-29T14:59:37;100226.00;;;16.30
20289;BMP180;10303;51.960;8.372;2023-03-29T15:02:23;100225.00;;;16.40
20289;BMP180;10303;51.960;8.372;2023-03-29T15:04:57;100222.00;;;16.50
20289;BMP180;10303;51.960;8.372;2023-03-29T15:07:26;100212.00;;;16.60
20289;BMP180;10303;51.960;8.372;2023-03-29T15:09:54;100202.00;;;16.70
20289;BMP180;10303;51.960;8.372;2023-03-29T15:12:21;100201.00;;;16.80
20289;BMP180;10303;51.960;8.372;2023-03-29T15:14:51;100192.00;;;16.80
20289;BMP180;10303;51.960;8.372;2023-03-29T15:17:34;100202.00;;;16.80
20289;BMP180;10303;51.960;8.372;2023-03-29T15:20:27;100191.00;;;16.80
20289;BMP180;10303;51.960;8.372;2023-03-29T15:23:00;100191.00;;;16.90
20289;BMP180;10303;51.960;8.372;2023-03-29T15:25:55;100188.00;;;16.90
20289;BMP180;10303;51.960;8.372;2023-03-29T15:28:32;100180.00;;;16.90
20289;BMP180;10303;51.960;8.372;2023-03-29T15:31:18;100171.00;;;17.00
20289;BMP180;10303;51.960;8.372;2023-03-29T15:33:45;100177.00;;;17.10
20289;BMP180;10303;51.960;8.372;2023-03-29T15:36:13;100179.00;;;17.10
20289;BMP180;10303;51.960;8.372;2023-03-29T15:38:41;100177.00;;;17.10
20289;BMP180;10303;51.960;8.372;2023-03-29T15:41:08;100175.00;;;17.20
20289;BMP180;10303;51.960;8.372;2023-03-29T15:43:35;100167.00;;;17.20
20289;BMP180;10303;51.960;8.372;2023-03-29T15:46:01;100178.00;;;17.30
20289;BMP180;10303;51.960;8.372;2023-03-29T15:48:28;100172.00;;;17.30
20289;BMP180;10303;51.960;8.372;2023-03-29T15:50:55;100161.00;;;17.30
20289;BMP180;10303;51.960;8.372;2023-03-29T15:53:21;100153.00;;;17.30
20289;BMP180;10303;51.960;8.372;2023-03-29T15:55:51;100157.00;;;17.40
20289;BMP180;10303;51.960;8.372;2023-03-29T15:58:28;100151.00;;;17.40
20289;BMP180;10303;51.960;8.372;2023-03-29T16:01:31;100147.00;;;17.40
20289;BMP180;10303;51.960;8.372;2023-03-29T16:04:20;100144.00;;;17.40
20289;BMP180;10303;51.960;8.372;2023-03-29T16:06:50;100143.00;;;17.40
20289;BMP180;10303;51.960;8.372;2023-03-29T16:09:19;100141.00;;;17.50
20289;BMP180;10303;51.960;8.372;2023-03-29T16:11:47;100140.00;;;17.50
20289;BMP180;10303;51.960;8.372;2023-03-29T16:14:26;100138.00;;;17.50
20289;BMP180;10303;51.960;8.372;2023-03-29T16:16:53;100139.00;;;17.50
20289;BMP180;10303;51.960;8.372;2023-03-29T16:19:24;100131.00;;;17.60
20289;BMP180;10303;51.960;8.372;2023-03-29T16:21:50;100133.00;;;17.60
20289;BMP180;10303;51.960;8.372;2023-03-29T16:24:24;100115.00;;;17.60
20289;BMP180;10303;51.960;8.372;2023-03-29T16:26:51;100118.00;;;17.60
20289;BMP180;10303;51.960;8.372;2023-03-29T16:29:18;100116.00;;;17.60
20289;BMP180;10303;51.960;8.372;2023-03-29T16:31:46;100118.00;;;17.60
20289;BMP180;10303;51.960;8.372;2023-03-29T16:34:14;100112.00;;;17.60
20289;BMP180;10303;51.960;8.372;2023-03-29T16:36:41;100118.00;;;17.60